createdAt,value
2022-12-15T00:00:58.157Z,-1.99
2022-12-15T00:04:04.833Z,-2.10
2022-12-15T00:07:11.466Z,-1.98
2022-12-15T00:10:17.883Z,-1.94
2022-12-15T00:13:32.314Z,-2.26
2022-12-15T00:16:39.072Z,-2.10
2022-12-15T00:19:45.799Z,-1.86
2022-12-15T00:22:52.239Z,-1.46
2022-12-15T00:25:58.821Z,-1.22
2022-12-15T00:29:05.333Z,-0.88
2022-12-15T00:32:11.727Z,-0.79
2022-12-15T00:35:18.190Z,-0.70
2022-12-15T00:38:30.345Z,-0.60
2022-12-15T00:41:18.994Z,-0.63
2022-12-15T00:44:06.418Z,-0.55
2022-12-15T00:46:56.698Z,-0.55
2022-12-15T00:50:02.973Z,-0.46
2022-12-15T00:53:09.325Z,-0.40
2022-12-15T00:56:15.510Z,-0.34
2022-12-15T00:59:21.332Z,-0.37
2022-12-15T01:02:27.770Z,-0.43
2022-12-15T01:05:34.361Z,-0.45
2022-12-15T01:08:40.766Z,-0.58
2022-12-15T01:11:47.507Z,-0.63
2022-12-15T01:14:54.893Z,-0.56
2022-12-15T01:18:01.151Z,-0.35
2022-12-15T01:21:05.400Z,-0.30
2022-12-15T01:23:53.811Z,-0.06
2022-12-15T01:26:41.652Z,0.21
2022-12-15T01:29:29.606Z,0.44
2022-12-15T01:32:17.524Z,0.54
2022-12-15T01:35:07.592Z,0.63
2022-12-15T01:37:55.496Z,0.74
2022-12-15T01:40:56.065Z,1.86
2022-12-15T01:43:43.847Z,3.04
2022-12-15T01:46:31.555Z,3.46
2022-12-15T01:49:32.290Z,3.73
2022-12-15T01:52:19.851Z,3.99
2022-12-15T01:55:07.795Z,4.19
2022-12-15T01:58:03.757Z,4.15
2022-12-15T02:00:51.338Z,4.17
2022-12-15T02:03:39.839Z,4.18
2022-12-15T02:06:28.587Z,4.02
2022-12-15T02:09:18.245Z,3.91
2022-12-15T02:12:17.369Z,3.76
2022-12-15T02:15:35.816Z,3.77
2022-12-15T02:18:51.259Z,3.91
2022-12-15T02:21:56.014Z,4.18
2022-12-15T02:25:22.664Z,4.33
2022-12-15T02:28:43.922Z,4.36
2022-12-15T02:31:51.206Z,4.53
2022-12-15T02:34:57.221Z,4.48
2022-12-15T02:37:45.269Z,4.07
2022-12-15T02:40:37.876Z,3.79
2022-12-15T02:43:27.822Z,3.63
2022-12-15T02:46:56.412Z,3.13
2022-12-15T02:50:08.253Z,2.60
2022-12-15T02:53:20.277Z,2.47
2022-12-15T02:56:35.608Z,2.31
2022-12-15T02:59:41.913Z,2.12
2022-12-15T03:02:34.737Z,2.01
2022-12-15T03:05:24.959Z,1.91
2022-12-15T03:08:12.612Z,1.84
2022-12-15T03:11:01.969Z,1.72
2022-12-15T03:13:49.866Z,1.41
2022-12-15T03:16:37.957Z,1.27
2022-12-15T03:19:26.013Z,1.09
2022-12-15T03:22:13.811Z,0.86
2022-12-15T03:25:01.558Z,0.70
2022-12-15T03:27:49.567Z,0.67
2022-12-15T03:30:37.456Z,0.63
2022-12-15T03:33:25.007Z,0.57
2022-12-15T03:36:12.456Z,0.57
2022-12-15T03:39:00.369Z,0.50
2022-12-15T03:41:47.740Z,0.47
2022-12-15T03:44:35.247Z,0.64
2022-12-15T03:47:23.153Z,0.77
2022-12-15T03:50:13.273Z,0.69
2022-12-15T03:53:03.536Z,0.64
2022-12-15T03:55:51.435Z,0.61
2022-12-15T03:58:39.607Z,0.81
2022-12-15T04:01:33.759Z,1.05
2022-12-15T04:04:21.873Z,1.26
2022-12-15T04:07:09.542Z,1.46
2022-12-15T04:09:57.162Z,1.47
2022-12-15T04:12:44.721Z,1.44
2022-12-15T04:15:33.575Z,1.54
2022-12-15T04:18:21.305Z,1.64
2022-12-15T04:21:09.086Z,1.68
2022-12-15T04:24:15.326Z,1.69
2022-12-15T04:27:21.319Z,1.64
2022-12-15T04:30:28.424Z,1.65
2022-12-15T04:33:35.948Z,1.72
2022-12-15T04:36:42.898Z,1.78
2022-12-15T04:39:49.727Z,1.67
2022-12-15T04:43:05.720Z,1.51
2022-12-15T04:46:12.206Z,1.53
2022-12-15T04:49:18.726Z,1.61
2022-12-15T04:52:25.142Z,1.75
2022-12-15T04:55:31.617Z,1.83
2022-12-15T04:58:38.088Z,1.92
2022-12-15T05:01:44.487Z,1.90
2022-12-15T05:04:50.677Z,1.94
2022-12-15T05:07:57.009Z,2.04
2022-12-15T05:11:03.170Z,2.12
2022-12-15T05:14:09.388Z,2.18
2022-12-15T05:17:16.022Z,2.06
2022-12-15T05:20:22.939Z,1.92
2022-12-15T05:23:29.698Z,1.84
2022-12-15T05:26:35.926Z,1.89
2022-12-15T05:29:42.226Z,1.94
2022-12-15T05:32:33.249Z,1.86
2022-12-15T05:35:21.263Z,1.77
2022-12-15T05:38:09.427Z,1.73
2022-12-15T05:40:59.568Z,1.70
2022-12-15T05:43:47.783Z,1.69
2022-12-15T05:46:35.798Z,1.66
2022-12-15T05:49:23.562Z,1.70
2022-12-15T05:52:11.343Z,1.64
2022-12-15T05:54:59.400Z,1.63
2022-12-15T05:57:54.362Z,1.60
2022-12-15T06:00:41.735Z,1.38
2022-12-15T06:03:33.921Z,1.27
2022-12-15T06:06:28.591Z,1.04
2022-12-15T06:09:16.403Z,0.88
2022-12-15T06:12:04.421Z,0.71
2022-12-15T06:14:54.557Z,0.62
2022-12-15T06:17:57.740Z,0.68
2022-12-15T06:20:45.361Z,0.78
2022-12-15T06:23:37.979Z,0.92
2022-12-15T06:26:40.508Z,1.09
2022-12-15T06:29:28.078Z,1.17
2022-12-15T06:32:15.880Z,1.28
2022-12-15T06:35:03.759Z,1.36
2022-12-15T06:37:51.355Z,1.35
2022-12-15T06:40:39.644Z,1.43
2022-12-15T06:43:29.084Z,1.49
2022-12-15T06:46:17.297Z,1.50
2022-12-15T06:49:05.548Z,1.43
2022-12-15T06:51:53.344Z,1.32
2022-12-15T06:54:40.911Z,1.30
2022-12-15T06:57:28.672Z,1.20
2022-12-15T07:00:16.870Z,1.01
2022-12-15T07:03:10.294Z,0.88
2022-12-15T07:06:09.521Z,0.81
2022-12-15T07:08:57.157Z,0.73
2022-12-15T07:11:46.483Z,0.69
2022-12-15T07:14:34.090Z,0.79
2022-12-15T07:17:21.660Z,0.83
2022-12-15T07:20:11.078Z,0.77
2022-12-15T07:22:58.971Z,0.65
2022-12-15T07:25:46.775Z,0.61
2022-12-15T07:28:38.307Z,0.62
2022-12-15T07:31:25.954Z,0.75
2022-12-15T07:34:13.956Z,0.92
2022-12-15T07:37:01.916Z,1.09
2022-12-15T07:39:49.880Z,1.15
2022-12-15T07:42:37.404Z,1.13
2022-12-15T07:45:26.384Z,1.11
2022-12-15T07:48:14.178Z,1.22
2022-12-15T07:51:17.152Z,1.27
2022-12-15T07:54:07.732Z,1.35
2022-12-15T07:56:55.764Z,1.50
2022-12-15T07:59:43.642Z,1.56
2022-12-15T08:02:32.322Z,1.53
2022-12-15T08:05:20.104Z,1.62
2022-12-15T08:08:13.713Z,1.68
2022-12-15T08:11:13.607Z,1.68
2022-12-15T08:14:03.023Z,1.62
2022-12-15T08:16:51.999Z,1.73
2022-12-15T08:19:39.469Z,1.86
2022-12-15T08:22:27.143Z,2.13
2022-12-15T08:25:14.853Z,2.82
2022-12-15T08:28:02.404Z,4.17
2022-12-15T08:30:49.985Z,5.71
2022-12-15T08:33:38.991Z,5.85
2022-12-15T08:36:26.563Z,5.72
2022-12-15T08:39:14.295Z,5.49
2022-12-15T08:42:01.656Z,5.30
2022-12-15T08:44:50.366Z,5.54
2022-12-15T08:47:38.731Z,5.96
2022-12-15T08:50:26.233Z,6.38
2022-12-15T08:53:30.819Z,6.83
2022-12-15T08:56:21.704Z,7.24
2022-12-15T08:59:09.876Z,7.30
2022-12-15T09:01:59.482Z,7.23
2022-12-15T09:04:47.440Z,7.27
2022-12-15T09:07:35.589Z,7.28
2022-12-15T09:10:24.134Z,7.36
2022-12-15T09:13:11.568Z,7.59
2022-12-15T09:16:10.216Z,7.84
2022-12-15T09:19:03.436Z,7.78
2022-12-15T09:21:51.005Z,7.57
2022-12-15T09:24:38.804Z,7.62
2022-12-15T09:27:26.164Z,7.70
2022-12-15T09:30:14.432Z,7.72
2022-12-15T09:33:01.998Z,7.93
2022-12-15T09:35:51.725Z,8.08
2022-12-15T09:38:41.658Z,8.34
2022-12-15T09:41:35.529Z,8.65
2022-12-15T09:44:25.715Z,8.91
2022-12-15T09:47:30.395Z,8.96
2022-12-15T09:50:26.209Z,8.74
2022-12-15T09:53:53.070Z,8.64
2022-12-15T09:56:40.739Z,8.91
2022-12-15T09:59:47.292Z,9.35
2022-12-15T10:03:23.089Z,9.74
2022-12-15T10:06:32.958Z,10.07
2022-12-15T10:09:29.079Z,10.56
2022-12-15T10:12:27.123Z,10.86
2022-12-15T10:15:30.812Z,11.19
2022-12-15T10:18:26.709Z,11.70
2022-12-15T10:21:14.802Z,12.13
2022-12-15T10:25:08.122Z,12.36
2022-12-15T10:28:19.089Z,12.70
2022-12-15T10:31:18.910Z,12.62
2022-12-15T10:34:24.101Z,12.62
2022-12-15T10:37:21.143Z,12.77
2022-12-15T10:40:14.792Z,12.84
2022-12-15T10:43:14.438Z,12.71
2022-12-15T10:46:22.111Z,12.56
2022-12-15T10:49:09.892Z,12.67
2022-12-15T10:52:01.194Z,12.85
2022-12-15T10:54:52.731Z,13.13
2022-12-15T10:57:58.451Z,13.08
2022-12-15T11:00:46.604Z,12.72
2022-12-15T11:03:39.969Z,12.27
2022-12-15T11:06:34.018Z,11.84
2022-12-15T11:09:36.701Z,11.62
2022-12-15T11:12:50.624Z,11.54
2022-12-15T11:15:51.753Z,11.77
2022-12-15T11:18:53.903Z,11.87
2022-12-15T11:21:52.003Z,11.88
2022-12-15T11:24:50.964Z,11.94
2022-12-15T11:27:44.113Z,12.13
2022-12-15T11:30:42.543Z,12.14
2022-12-15T11:33:30.465Z,12.17
2022-12-15T11:36:36.922Z,12.07
2022-12-15T11:39:55.391Z,11.38
2022-12-15T11:43:18.856Z,10.69
2022-12-15T11:46:43.040Z,10.16
2022-12-15T11:50:06.306Z,9.83
2022-12-15T11:53:40.512Z,9.91
2022-12-15T11:56:39.456Z,9.94
2022-12-15T11:59:57.492Z,9.99
2022-12-15T12:03:23.096Z,9.99
2022-12-15T12:06:16.952Z,9.50
2022-12-15T12:09:30.120Z,9.12
2022-12-15T12:12:40.228Z,8.81
2022-12-15T12:15:55.710Z,8.51
2022-12-15T12:19:06.103Z,8.21
2022-12-15T12:22:03.738Z,8.02
2022-12-15T12:24:57.642Z,7.64
2022-12-15T12:28:14.312Z,6.89
2022-12-15T12:31:03.767Z,5.43
2022-12-15T12:33:55.851Z,4.27
2022-12-15T12:36:45.212Z,3.27
2022-12-15T12:39:37.676Z,2.38
2022-12-15T12:42:40.592Z,1.57
2022-12-15T12:45:33.756Z,0.71
2022-12-15T12:48:58.476Z,0.05
2022-12-15T12:51:53.756Z,-0.68
2022-12-15T12:54:44.758Z,-1.20
2022-12-15T12:57:37.704Z,-1.62
2022-12-15T13:00:31.311Z,-2.01
2022-12-15T13:03:21.645Z,-2.29
2022-12-15T13:06:34.324Z,-2.53
2022-12-15T13:09:25.340Z,-2.74
2022-12-15T13:12:55.245Z,-2.91
2022-12-15T13:15:50.819Z,-3.06
2022-12-15T13:19:56.525Z,-3.15
2022-12-15T13:22:44.491Z,-3.18
2022-12-15T13:25:41.857Z,-3.16
2022-12-15T13:28:44.492Z,-3.18
2022-12-15T13:31:43.207Z,-3.21
2022-12-15T13:34:40.977Z,-3.25
2022-12-15T13:37:50.908Z,-3.27
2022-12-15T13:40:38.582Z,-3.28
2022-12-15T13:43:29.670Z,-3.32
2022-12-15T13:46:25.083Z,-3.37
2022-12-15T13:49:21.400Z,-3.46
2022-12-15T13:53:19.080Z,-3.56
2022-12-15T13:56:10.800Z,-3.69
2022-12-15T13:59:07.549Z,-3.79
2022-12-15T14:01:55.307Z,-3.93
2022-12-15T14:04:42.951Z,-4.06
2022-12-15T14:07:30.451Z,-4.22
2022-12-15T14:10:42.532Z,-4.37
2022-12-15T14:13:35.574Z,-4.55
2022-12-15T14:16:35.418Z,-4.54
2022-12-15T14:19:23.697Z,-2.42
2022-12-15T14:22:28.122Z,-0.67
2022-12-15T14:25:29.455Z,0.32
2022-12-15T14:28:34.020Z,0.65
2022-12-15T14:31:24.367Z,0.91
2022-12-15T14:34:25.169Z,1.05
2022-12-15T14:37:20.224Z,0.93
2022-12-15T14:40:17.032Z,0.73
2022-12-15T14:43:11.752Z,0.84
2022-12-15T14:46:16.701Z,1.00
2022-12-15T14:49:09.111Z,1.01
2022-12-15T14:52:05.227Z,1.21
2022-12-15T14:54:57.708Z,1.35
2022-12-15T14:57:46.947Z,1.30
2022-12-15T15:00:48.775Z,1.42
2022-12-15T15:03:40.882Z,2.26
2022-12-15T15:06:57.140Z,3.20
2022-12-15T15:09:46.686Z,4.00
2022-12-15T15:13:00.562Z,4.06
2022-12-15T15:16:00.966Z,4.15
2022-12-15T15:18:56.148Z,4.17
2022-12-15T15:21:46.287Z,4.44
2022-12-15T15:24:39.773Z,4.34
2022-12-15T15:27:40.042Z,4.00
2022-12-15T15:30:27.528Z,3.81
2022-12-15T15:33:16.033Z,3.84
2022-12-15T15:36:10.865Z,3.46
2022-12-15T15:38:59.446Z,2.84
2022-12-15T15:41:47.275Z,2.33
2022-12-15T15:44:35.532Z,2.38
2022-12-15T15:47:27.381Z,2.60
2022-12-15T15:50:21.427Z,3.17
2022-12-15T15:53:18.731Z,2.98
2022-12-15T15:56:10.595Z,3.05
2022-12-15T15:59:09.480Z,3.14
2022-12-15T16:01:59.281Z,3.19
2022-12-15T16:04:46.979Z,3.58
2022-12-15T16:07:34.909Z,3.60
2022-12-15T16:10:22.766Z,3.65
2022-12-15T16:13:11.429Z,3.90
2022-12-15T16:15:59.266Z,4.00
2022-12-15T16:18:47.230Z,3.97
2022-12-15T16:21:36.234Z,4.06
2022-12-15T16:24:23.938Z,4.05
2022-12-15T16:27:13.443Z,3.82
2022-12-15T16:30:01.486Z,3.57
2022-12-15T16:32:50.615Z,4.01
2022-12-15T16:35:39.688Z,3.96
2022-12-15T16:38:32.689Z,3.84
2022-12-15T16:41:23.355Z,4.10
2022-12-15T16:44:12.581Z,3.98
2022-12-15T16:47:00.211Z,3.77
2022-12-15T16:49:47.884Z,3.89
2022-12-15T16:52:35.630Z,3.88
2022-12-15T16:55:38.126Z,3.70
2022-12-15T16:58:30.552Z,3.37
2022-12-15T17:01:18.774Z,3.32
2022-12-15T17:04:07.159Z,2.80
2022-12-15T17:06:55.165Z,2.49
2022-12-15T17:09:43.143Z,2.16
2022-12-15T17:12:31.808Z,1.95
2022-12-15T17:15:26.373Z,1.71
2022-12-15T17:18:15.028Z,1.49
2022-12-15T17:21:18.756Z,1.17
2022-12-15T17:24:13.966Z,1.36
2022-12-15T17:27:02.486Z,1.96
2022-12-15T17:29:50.342Z,2.48
2022-12-15T17:32:38.197Z,2.37
2022-12-15T17:35:25.783Z,2.56
2022-12-15T17:38:19.757Z,3.01
2022-12-15T17:41:35.132Z,3.29
2022-12-15T17:44:32.988Z,2.97
2022-12-15T17:47:24.250Z,3.52
2022-12-15T17:50:13.231Z,3.99
2022-12-15T17:53:03.467Z,4.21
2022-12-15T17:55:53.527Z,4.54
2022-12-15T17:58:42.482Z,4.60
2022-12-15T18:01:30.049Z,4.49
2022-12-15T18:04:17.858Z,4.87
2022-12-15T18:07:05.505Z,5.17
2022-12-15T18:09:53.674Z,4.31
2022-12-15T18:12:41.520Z,2.03
2022-12-15T18:15:32.592Z,0.21
2022-12-15T18:18:22.867Z,-1.05
2022-12-15T18:21:17.022Z,-2.00
2022-12-15T18:24:17.539Z,-2.76
2022-12-15T18:27:33.681Z,-3.37
2022-12-15T18:30:27.090Z,-3.92
2022-12-15T18:33:15.468Z,-4.33
2022-12-15T18:36:03.003Z,-4.58
2022-12-15T18:38:51.267Z,-2.68
2022-12-15T18:41:39.563Z,-0.12
2022-12-15T18:44:31.827Z,1.25
2022-12-15T18:47:23.299Z,2.07
2022-12-15T18:50:25.764Z,1.81
2022-12-15T18:53:21.512Z,1.47
2022-12-15T18:56:14.512Z,1.51
2022-12-15T18:59:02.165Z,1.49
2022-12-15T19:01:50.876Z,1.54
2022-12-15T19:04:39.166Z,1.59
2022-12-15T19:07:27.716Z,1.48
2022-12-15T19:10:15.587Z,1.27
2022-12-15T19:13:03.974Z,1.23
2022-12-15T19:15:53.489Z,1.34
2022-12-15T19:18:59.827Z,1.56
2022-12-15T19:22:07.118Z,1.98
2022-12-15T19:24:54.973Z,1.68
2022-12-15T19:27:42.599Z,1.44
2022-12-15T19:30:41.642Z,1.14
2022-12-15T19:33:30.347Z,1.37
2022-12-15T19:36:24.329Z,1.14
2022-12-15T19:39:23.486Z,0.59
2022-12-15T19:42:24.081Z,0.32
2022-12-15T19:45:27.787Z,0.36
2022-12-15T19:48:21.625Z,0.41
2022-12-15T19:51:24.275Z,0.50
2022-12-15T19:54:19.535Z,0.62
2022-12-15T19:57:14.704Z,0.50
2022-12-15T20:00:06.559Z,0.68
2022-12-15T20:02:59.935Z,0.82
2022-12-15T20:05:52.121Z,0.79
2022-12-15T20:08:42.740Z,0.71
2022-12-15T20:11:33.194Z,0.76
2022-12-15T20:14:21.644Z,0.88
2022-12-15T20:17:09.357Z,1.00
2022-12-15T20:19:57.354Z,0.96
2022-12-15T20:22:47.399Z,0.87
2022-12-15T20:25:38.003Z,0.72
2022-12-15T20:28:29.459Z,0.84
2022-12-15T20:31:22.036Z,0.89
2022-12-15T20:34:10.369Z,1.07
2022-12-15T20:36:58.450Z,1.30
2022-12-15T20:39:48.038Z,1.29
2022-12-15T20:42:38.720Z,1.19
2022-12-15T20:45:30.542Z,1.03
2022-12-15T20:48:19.904Z,0.69
2022-12-15T20:51:31.758Z,0.81
2022-12-15T20:54:22.108Z,0.80
2022-12-15T20:57:09.995Z,0.91
2022-12-15T20:59:59.138Z,1.09
2022-12-15T21:02:51.816Z,1.29
2022-12-15T21:05:42.015Z,1.35
2022-12-15T21:08:32.374Z,1.54
2022-12-15T21:11:37.259Z,1.81
2022-12-15T21:14:26.639Z,1.87
2022-12-15T21:17:21.138Z,1.98
2022-12-15T21:20:10.441Z,2.01
2022-12-15T21:22:58.372Z,2.07
2022-12-15T21:25:46.114Z,2.27
2022-12-15T21:28:34.275Z,2.36
2022-12-15T21:31:23.671Z,2.40
2022-12-15T21:34:11.770Z,2.40
2022-12-15T21:36:59.919Z,2.53
2022-12-15T21:39:47.669Z,2.58
2022-12-15T21:42:36.641Z,2.65
2022-12-15T21:45:26.275Z,2.37
2022-12-15T21:48:32.803Z,2.19
2022-12-15T21:51:25.198Z,2.16
2022-12-15T21:54:28.805Z,2.36
2022-12-15T21:57:18.996Z,2.33
2022-12-15T22:00:14.663Z,2.28
2022-12-15T22:03:02.301Z,2.37
2022-12-15T22:05:50.298Z,2.43
2022-12-15T22:08:38.205Z,2.34
2022-12-15T22:11:28.496Z,2.24
2022-12-15T22:14:29.732Z,2.20
2022-12-15T22:17:21.709Z,2.26
2022-12-15T22:20:21.903Z,2.46
2022-12-15T22:23:09.349Z,2.49
2022-12-15T22:25:57.133Z,2.60
2022-12-15T22:28:44.999Z,2.63
2022-12-15T22:31:32.474Z,2.62
2022-12-15T22:34:23.699Z,2.61
2022-12-15T22:37:11.409Z,2.40
2022-12-15T22:39:59.187Z,2.49
2022-12-15T22:42:54.879Z,2.49
2022-12-15T22:45:43.246Z,2.39
2022-12-15T22:48:37.061Z,2.46
2022-12-15T22:51:25.257Z,2.32
2022-12-15T22:54:22.928Z,2.42
2022-12-15T22:57:22.256Z,2.56
2022-12-15T23:00:11.727Z,2.51
2022-12-15T23:02:59.812Z,2.58
2022-12-15T23:05:47.770Z,2.37
2022-12-15T23:08:35.468Z,2.38
2022-12-15T23:11:39.674Z,2.00
2022-12-15T23:15:06.408Z,1.95
2022-12-15T23:17:53.934Z,1.97
2022-12-15T23:20:43.033Z,2.18
2022-12-15T23:23:32.846Z,2.25
2022-12-15T23:26:26.132Z,2.32
2022-12-15T23:29:14.366Z,2.40
2022-12-15T23:32:01.788Z,2.29
2022-12-15T23:34:49.655Z,2.30
2022-12-15T23:37:37.290Z,2.37
2022-12-15T23:40:25.039Z,2.51
2022-12-15T23:43:12.982Z,2.38
2022-12-15T23:46:05.468Z,2.24
2022-12-15T23:48:53.282Z,2.11
2022-12-15T23:51:42.746Z,2.05
2022-12-15T23:54:30.529Z,2.23
2022-12-15T23:57:18.539Z,2.30
